sensor_id;sensor_type;location;lat;lon;timestamp;P1;durP1;ratioP1;P2;durP2;ratioP2
42134;SDS011;28312;43.460;11.810;2023-02-22T00:02:41;8.18;;;6.20;;
42134;SDS011;28312;43.460;11.810;2023-02-22T00:06:47;7.72;;;6.40;;
42134;SDS011;28312;43.460;11.810;2023-02-22T00:10:51;7.20;;;5.78;;
42134;SDS011;28312;43.460;11.810;2023-02-22T00:14:55;9.32;;;6.82;;
42134;SDS011;28312;43.460;11.810;2023-02-22T00:18:58;10.07;;;8.35;;
42134;SDS011;28312;43.460;11.810;2023-02-22T00:23:02;10.10;;;7.85;;
42134;SDS011;28312;43.460;11.810;2023-02-22T00:31:12;9.68;;;7.78;;
42134;SDS011;28312;43.460;11.810;2023-02-22T00:35:17;7.68;;;6.38;;
42134;SDS011;28312;43.460;11.810;2023-02-22T00:39:23;10.77;;;8.55;;
42134;SDS011;28312;43.460;11.810;2023-02-22T00:43:27;8.20;;;6.75;;
42134;SDS011;28312;43.460;11.810;2023-02-22T00:47:31;9.00;;;7.95;;
42134;SDS011;28312;43.460;11.810;2023-02-22T00:51:35;9.27;;;7.07;;
42134;SDS011;28312;43.460;11.810;2023-02-22T00:55:38;9.07;;;7.40;;
42134;SDS011;28312;43.460;11.810;2023-02-22T00:59:42;9.90;;;7.55;;
42134;SDS011;28312;43.460;11.810;2023-02-22T01:03:46;12.35;;;7.95;;
42134;SDS011;28312;43.460;11.810;2023-02-22T01:07:50;9.25;;;7.03;;
42134;SDS011;28312;43.460;11.810;2023-02-22T01:11:55;10.23;;;8.10;;
42134;SDS011;28312;43.460;11.810;2023-02-22T01:15:59;10.75;;;8.77;;
42134;SDS011;28312;43.460;11.810;2023-02-22T01:20:03;11.60;;;9.70;;
42134;SDS011;28312;43.460;11.810;2023-02-22T01:24:15;10.50;;;7.55;;
42134;SDS011;28312;43.460;11.810;2023-02-22T01:28:19;9.63;;;7.00;;
42134;SDS011;28312;43.460;11.810;2023-02-22T01:32:24;9.10;;;7.68;;
42134;SDS011;28312;43.460;11.810;2023-02-22T01:36:28;9.35;;;7.45;;
42134;SDS011;28312;43.460;11.810;2023-02-22T01:40:33;12.35;;;7.47;;
42134;SDS011;28312;43.460;11.810;2023-02-22T01:48:48;8.35;;;7.45;;
42134;SDS011;28312;43.460;11.810;2023-02-22T01:52:52;9.13;;;7.97;;
42134;SDS011;28312;43.460;11.810;2023-02-22T01:56:58;10.35;;;7.53;;
42134;SDS011;28312;43.460;11.810;2023-02-22T02:01:02;10.05;;;6.93;;
42134;SDS011;28312;43.460;11.810;2023-02-22T02:05:07;10.07;;;7.90;;
42134;SDS011;28312;43.460;11.810;2023-02-22T02:09:14;8.40;;;7.50;;
42134;SDS011;28312;43.460;11.810;2023-02-22T02:13:20;8.55;;;5.70;;
42134;SDS011;28312;43.460;11.810;2023-02-22T02:17:24;8.25;;;5.90;;
42134;SDS011;28312;43.460;11.810;2023-02-22T02:30:18;14.20;;;7.27;;
42134;SDS011;28312;43.460;11.810;2023-02-22T02:39:17;10.27;;;7.15;;
42134;SDS011;28312;43.460;11.810;2023-02-22T02:48:07;9.80;;;8.02;;
42134;SDS011;28312;43.460;11.810;2023-02-22T02:52:17;10.93;;;8.30;;
42134;SDS011;28312;43.460;11.810;2023-02-22T02:56:22;11.20;;;7.25;;
42134;SDS011;28312;43.460;11.810;2023-02-22T03:00:27;10.15;;;7.70;;
42134;SDS011;28312;43.460;11.810;2023-02-22T03:04:41;10.73;;;9.35;;
42134;SDS011;28312;43.460;11.810;2023-02-22T03:13:15;9.13;;;6.35;;
42134;SDS011;28312;43.460;11.810;2023-02-22T03:17:46;9.45;;;8.30;;
42134;SDS011;28312;43.460;11.810;2023-02-22T03:26:07;10.40;;;8.25;;
42134;SDS011;28312;43.460;11.810;2023-02-22T03:30:23;10.32;;;7.70;;
42134;SDS011;28312;43.460;11.810;2023-02-22T03:34:37;10.43;;;7.72;;
42134;SDS011;28312;43.460;11.810;2023-02-22T03:38:48;8.30;;;6.40;;
42134;SDS011;28312;43.460;11.810;2023-02-22T03:42:59;8.80;;;7.03;;
42134;SDS011;28312;43.460;11.810;2023-02-22T03:47:17;9.10;;;7.25;;
42134;SDS011;28312;43.460;11.810;2023-02-22T03:51:27;12.23;;;7.20;;
42134;SDS011;28312;43.460;11.810;2023-02-22T03:55:34;8.18;;;6.75;;
42134;SDS011;28312;43.460;11.810;2023-02-22T03:59:39;7.55;;;6.03;;
42134;SDS011;28312;43.460;11.810;2023-02-22T04:03:42;7.28;;;5.72;;
42134;SDS011;28312;43.460;11.810;2023-02-22T04:07:53;10.50;;;8.90;;
42134;SDS011;28312;43.460;11.810;2023-02-22T04:11:58;9.48;;;8.05;;
42134;SDS011;28312;43.460;11.810;2023-02-22T04:16:04;11.03;;;7.37;;
42134;SDS011;28312;43.460;11.810;2023-02-22T04:20:10;12.52;;;8.57;;
42134;SDS011;28312;43.460;11.810;2023-02-22T04:24:22;8.63;;;7.05;;
42134;SDS011;28312;43.460;11.810;2023-02-22T04:28:26;9.48;;;8.23;;
42134;SDS011;28312;43.460;11.810;2023-02-22T04:32:44;9.18;;;7.85;;
42134;SDS011;28312;43.460;11.810;2023-02-22T04:36:50;13.82;;;8.38;;
42134;SDS011;28312;43.460;11.810;2023-02-22T04:40:54;8.32;;;6.63;;
42134;SDS011;28312;43.460;11.810;2023-02-22T04:44:58;8.55;;;6.85;;
42134;SDS011;28312;43.460;11.810;2023-02-22T04:49:02;7.40;;;6.32;;
42134;SDS011;28312;43.460;11.810;2023-02-22T04:53:09;9.40;;;7.32;;
42134;SDS011;28312;43.460;11.810;2023-02-22T04:57:13;7.25;;;6.03;;
42134;SDS011;28312;43.460;11.810;2023-02-22T05:01:17;10.25;;;8.02;;
42134;SDS011;28312;43.460;11.810;2023-02-22T05:05:22;8.18;;;7.20;;
42134;SDS011;28312;43.460;11.810;2023-02-22T05:09:26;8.50;;;7.00;;
42134;SDS011;28312;43.460;11.810;2023-02-22T05:13:30;9.27;;;7.32;;
42134;SDS011;28312;43.460;11.810;2023-02-22T05:17:34;13.48;;;8.13;;
42134;SDS011;28312;43.460;11.810;2023-02-22T05:21:38;10.93;;;8.68;;
42134;SDS011;28312;43.460;11.810;2023-02-22T05:25:42;11.45;;;9.02;;
42134;SDS011;28312;43.460;11.810;2023-02-22T05:29:46;9.50;;;8.50;;
42134;SDS011;28312;43.460;11.810;2023-02-22T05:33:49;13.02;;;9.60;;
42134;SDS011;28312;43.460;11.810;2023-02-22T05:37:53;9.13;;;7.75;;
42134;SDS011;28312;43.460;11.810;2023-02-22T05:41:57;10.80;;;8.50;;
42134;SDS011;28312;43.460;11.810;2023-02-22T05:46:00;9.35;;;7.57;;
42134;SDS011;28312;43.460;11.810;2023-02-22T05:50:04;9.40;;;7.95;;
42134;SDS011;28312;43.460;11.810;2023-02-22T05:54:08;10.50;;;8.85;;
42134;SDS011;28312;43.460;11.810;2023-02-22T05:58:11;10.90;;;8.68;;
42134;SDS011;28312;43.460;11.810;2023-02-22T06:02:15;10.45;;;8.15;;
42134;SDS011;28312;43.460;11.810;2023-02-22T06:06:19;9.23;;;7.38;;
42134;SDS011;28312;43.460;11.810;2023-02-22T06:10:24;9.02;;;8.13;;
42134;SDS011;28312;43.460;11.810;2023-02-22T06:14:28;9.40;;;8.40;;
42134;SDS011;28312;43.460;11.810;2023-02-22T06:22:38;11.82;;;8.10;;
42134;SDS011;28312;43.460;11.810;2023-02-22T06:30:47;11.43;;;9.43;;
42134;SDS011;28312;43.460;11.810;2023-02-22T06:34:51;14.30;;;9.70;;
42134;SDS011;28312;43.460;11.810;2023-02-22T06:38:56;10.27;;;8.43;;
42134;SDS011;28312;43.460;11.810;2023-02-22T06:43:00;10.02;;;9.02;;
42134;SDS011;28312;43.460;11.810;2023-02-22T06:47:04;11.27;;;8.88;;
42134;SDS011;28312;43.460;11.810;2023-02-22T06:51:08;10.30;;;8.77;;
42134;SDS011;28312;43.460;11.810;2023-02-22T06:55:15;12.02;;;9.43;;
42134;SDS011;28312;43.460;11.810;2023-02-22T06:59:23;13.27;;;10.35;;
42134;SDS011;28312;43.460;11.810;2023-02-22T07:03:28;13.15;;;9.80;;
42134;SDS011;28312;43.460;11.810;2023-02-22T07:07:32;10.13;;;8.25;;
42134;SDS011;28312;43.460;11.810;2023-02-22T07:11:37;8.30;;;6.70;;
42134;SDS011;28312;43.460;11.810;2023-02-22T07:15:41;8.20;;;7.35;;
42134;SDS011;28312;43.460;11.810;2023-02-22T07:19:44;10.50;;;8.25;;
42134;SDS011;28312;43.460;11.810;2023-02-22T07:23:51;8.32;;;6.72;;
42134;SDS011;28312;43.460;11.810;2023-02-22T07:27:56;10.52;;;8.77;;
42134;SDS011;28312;43.460;11.810;2023-02-22T07:32:00;11.43;;;9.65;;
42134;SDS011;28312;43.460;11.810;2023-02-22T07:36:05;9.60;;;7.78;;
42134;SDS011;28312;43.460;11.810;2023-02-22T07:40:09;14.43;;;11.60;;
42134;SDS011;28312;43.460;11.810;2023-02-22T07:44:13;9.07;;;7.85;;
42134;SDS011;28312;43.460;11.810;2023-02-22T07:48:21;10.45;;;7.63;;
42134;SDS011;28312;43.460;11.810;2023-02-22T07:52:26;11.48;;;9.23;;
42134;SDS011;28312;43.460;11.810;2023-02-22T07:56:29;12.15;;;9.98;;
42134;SDS011;28312;43.460;11.810;2023-02-22T08:00:34;8.13;;;5.82;;
42134;SDS011;28312;43.460;11.810;2023-02-22T08:04:39;7.88;;;6.20;;
42134;SDS011;28312;43.460;11.810;2023-02-22T08:08:42;8.68;;;6.57;;
42134;SDS011;28312;43.460;11.810;2023-02-22T08:12:46;10.60;;;8.10;;
42134;SDS011;28312;43.460;11.810;2023-02-22T08:16:51;10.80;;;8.52;;
42134;SDS011;28312;43.460;11.810;2023-02-22T08:20:54;8.93;;;7.20;;
42134;SDS011;28312;43.460;11.810;2023-02-22T08:24:58;9.10;;;7.88;;
42134;SDS011;28312;43.460;11.810;2023-02-22T08:29:01;12.65;;;8.90;;
42134;SDS011;28312;43.460;11.810;2023-02-22T08:33:05;7.43;;;6.00;;
42134;SDS011;28312;43.460;11.810;2023-02-22T08:37:09;18.35;;;15.25;;
42134;SDS011;28312;43.460;11.810;2023-02-22T08:41:13;9.60;;;7.05;;
42134;SDS011;28312;43.460;11.810;2023-02-22T08:45:16;8.75;;;6.78;;
42134;SDS011;28312;43.460;11.810;2023-02-22T08:49:21;7.57;;;6.18;;
42134;SDS011;28312;43.460;11.810;2023-02-22T08:53:26;10.85;;;5.82;;
42134;SDS011;28312;43.460;11.810;2023-02-22T08:57:30;6.50;;;5.60;;
42134;SDS011;28312;43.460;11.810;2023-02-22T09:01:33;8.23;;;5.80;;
42134;SDS011;28312;43.460;11.810;2023-02-22T09:05:38;8.98;;;6.38;;
42134;SDS011;28312;43.460;11.810;2023-02-22T09:09:42;6.82;;;5.40;;
42134;SDS011;28312;43.460;11.810;2023-02-22T09:13:48;12.33;;;6.27;;
42134;SDS011;28312;43.460;11.810;2023-02-22T09:17:52;6.00;;;4.60;;
42134;SDS011;28312;43.460;11.810;2023-02-22T09:21:56;7.50;;;5.53;;
42134;SDS011;28312;43.460;11.810;2023-02-22T09:26:01;17.65;;;12.25;;
42134;SDS011;28312;43.460;11.810;2023-02-22T09:30:05;10.50;;;7.55;;
42134;SDS011;28312;43.460;11.810;2023-02-22T09:34:13;9.93;;;7.05;;
42134;SDS011;28312;43.460;11.810;2023-02-22T09:38:19;8.30;;;4.95;;
42134;SDS011;28312;43.460;11.810;2023-02-22T09:42:29;11.93;;;8.00;;
42134;SDS011;28312;43.460;11.810;2023-02-22T09:46:37;8.75;;;5.88;;
42134;SDS011;28312;43.460;11.810;2023-02-22T09:50:47;9.55;;;6.22;;
42134;SDS011;28312;43.460;11.810;2023-02-22T09:55:01;7.07;;;4.75;;
42134;SDS011;28312;43.460;11.810;2023-02-22T09:59:10;5.10;;;3.22;;
42134;SDS011;28312;43.460;11.810;2023-02-22T10:07:51;5.15;;;3.28;;
42134;SDS011;28312;43.460;11.810;2023-02-22T10:12:02;5.57;;;4.15;;
42134;SDS011;28312;43.460;11.810;2023-02-22T10:16:39;8.98;;;4.55;;
42134;SDS011;28312;43.460;11.810;2023-02-22T10:25:33;5.85;;;4.68;;
42134;SDS011;28312;43.460;11.810;2023-02-22T10:29:40;9.18;;;6.50;;
42134;SDS011;28312;43.460;11.810;2023-02-22T10:33:47;6.95;;;4.80;;
42134;SDS011;28312;43.460;11.810;2023-02-22T10:38:16;7.32;;;5.15;;
42134;SDS011;28312;43.460;11.810;2023-02-22T10:42:25;6.78;;;5.43;;
42134;SDS011;28312;43.460;11.810;2023-02-22T10:46:30;6.78;;;4.60;;
42134;SDS011;28312;43.460;11.810;2023-02-22T10:50:37;6.32;;;4.90;;
42134;SDS011;28312;43.460;11.810;2023-02-22T10:54:44;5.93;;;4.10;;
42134;SDS011;28312;43.460;11.810;2023-02-22T11:03:05;5.47;;;3.05;;
42134;SDS011;28312;43.460;11.810;2023-02-22T11:07:24;4.10;;;2.80;;
42134;SDS011;28312;43.460;11.810;2023-02-22T11:11:30;6.35;;;3.20;;
42134;SDS011;28312;43.460;11.810;2023-02-22T11:15:33;5.20;;;2.70;;
42134;SDS011;28312;43.460;11.810;2023-02-22T11:19:37;3.78;;;2.72;;
42134;SDS011;28312;43.460;11.810;2023-02-22T11:23:48;5.38;;;3.40;;
42134;SDS011;28312;43.460;11.810;2023-02-22T11:28:25;5.18;;;3.08;;
42134;SDS011;28312;43.460;11.810;2023-02-22T11:32:34;5.25;;;3.13;;
42134;SDS011;28312;43.460;11.810;2023-02-22T11:36:44;5.68;;;3.10;;
42134;SDS011;28312;43.460;11.810;2023-02-22T11:45:19;4.70;;;2.58;;
42134;SDS011;28312;43.460;11.810;2023-02-22T11:49:36;6.45;;;4.43;;
42134;SDS011;28312;43.460;11.810;2023-02-22T11:53:49;5.45;;;3.47;;
42134;SDS011;28312;43.460;11.810;2023-02-22T11:58:35;4.18;;;2.88;;
42134;SDS011;28312;43.460;11.810;2023-02-22T12:15:51;4.50;;;2.85;;
42134;SDS011;28312;43.460;11.810;2023-02-22T12:20:19;5.85;;;3.53;;
42134;SDS011;28312;43.460;11.810;2023-02-22T12:24:30;5.57;;;3.20;;
42134;SDS011;28312;43.460;11.810;2023-02-22T12:32:46;4.75;;;2.85;;
42134;SDS011;28312;43.460;11.810;2023-02-22T12:46:03;4.32;;;3.13;;
42134;SDS011;28312;43.460;11.810;2023-02-22T12:50:14;6.97;;;4.07;;
42134;SDS011;28312;43.460;11.810;2023-02-22T12:58:52;4.15;;;2.80;;
42134;SDS011;28312;43.460;11.810;2023-02-22T13:11:42;7.70;;;4.75;;
42134;SDS011;28312;43.460;11.810;2023-02-22T13:24:42;5.28;;;2.53;;
42134;SDS011;28312;43.460;11.810;2023-02-22T13:29:19;5.43;;;2.83;;
42134;SDS011;28312;43.460;11.810;2023-02-22T13:38:11;3.63;;;2.10;;
42134;SDS011;28312;43.460;11.810;2023-02-22T13:42:25;3.85;;;1.88;;
42134;SDS011;28312;43.460;11.810;2023-02-22T13:46:38;6.82;;;1.73;;
42134;SDS011;28312;43.460;11.810;2023-02-22T13:55:23;4.22;;;2.45;;
42134;SDS011;28312;43.460;11.810;2023-02-22T13:59:34;3.17;;;1.70;;
42134;SDS011;28312;43.460;11.810;2023-02-22T14:03:39;5.40;;;2.60;;
42134;SDS011;28312;43.460;11.810;2023-02-22T14:07:46;2.97;;;1.60;;
42134;SDS011;28312;43.460;11.810;2023-02-22T14:11:50;2.78;;;1.75;;
42134;SDS011;28312;43.460;11.810;2023-02-22T14:24:18;3.40;;;1.48;;
42134;SDS011;28312;43.460;11.810;2023-02-22T14:37:03;2.50;;;1.40;;
42134;SDS011;28312;43.460;11.810;2023-02-22T14:41:10;3.63;;;2.30;;
42134;SDS011;28312;43.460;11.810;2023-02-22T14:49:32;4.72;;;2.42;;
42134;SDS011;28312;43.460;11.810;2023-02-22T14:53:42;2.60;;;1.50;;
42134;SDS011;28312;43.460;11.810;2023-02-22T14:58:18;2.50;;;1.70;;
42134;SDS011;28312;43.460;11.810;2023-02-22T15:02:22;2.95;;;1.83;;
42134;SDS011;28312;43.460;11.810;2023-02-22T15:06:27;2.78;;;1.90;;
42134;SDS011;28312;43.460;11.810;2023-02-22T15:14:47;2.50;;;1.42;;
42134;SDS011;28312;43.460;11.810;2023-02-22T15:18:53;3.20;;;1.88;;
42134;SDS011;28312;43.460;11.810;2023-02-22T15:22:59;3.97;;;2.30;;
42134;SDS011;28312;43.460;11.810;2023-02-22T15:27:10;3.90;;;2.50;;
42134;SDS011;28312;43.460;11.810;2023-02-22T15:31:21;5.72;;;3.15;;
42134;SDS011;28312;43.460;11.810;2023-02-22T15:39:33;3.00;;;1.67;;
42134;SDS011;28312;43.460;11.810;2023-02-22T15:43:55;3.08;;;1.70;;
42134;SDS011;28312;43.460;11.810;2023-02-22T15:48:25;2.20;;;1.45;;
42134;SDS011;28312;43.460;11.810;2023-02-22T15:52:30;3.33;;;1.63;;
42134;SDS011;28312;43.460;11.810;2023-02-22T15:56:34;3.33;;;1.70;;
42134;SDS011;28312;43.460;11.810;2023-02-22T16:00:39;3.55;;;1.92;;
42134;SDS011;28312;43.460;11.810;2023-02-22T16:04:45;4.40;;;1.90;;
42134;SDS011;28312;43.460;11.810;2023-02-22T16:09:06;5.88;;;2.20;;
42134;SDS011;28312;43.460;11.810;2023-02-22T16:13:21;3.63;;;2.28;;
42134;SDS011;28312;43.460;11.810;2023-02-22T16:17:35;4.10;;;1.90;;
42134;SDS011;28312;43.460;11.810;2023-02-22T16:21:51;3.53;;;1.55;;
42134;SDS011;28312;43.460;11.810;2023-02-22T16:26:06;4.80;;;1.90;;
42134;SDS011;28312;43.460;11.810;2023-02-22T16:34:27;6.60;;;3.35;;
42134;SDS011;28312;43.460;11.810;2023-02-22T16:38:31;6.22;;;3.53;;
42134;SDS011;28312;43.460;11.810;2023-02-22T16:42:35;4.50;;;2.30;;
42134;SDS011;28312;43.460;11.810;2023-02-22T16:46:39;3.97;;;2.00;;
42134;SDS011;28312;43.460;11.810;2023-02-22T16:50:43;5.03;;;2.63;;
42134;SDS011;28312;43.460;11.810;2023-02-22T16:54:47;4.97;;;2.42;;
42134;SDS011;28312;43.460;11.810;2023-02-22T16:58:52;3.58;;;2.33;;
42134;SDS011;28312;43.460;11.810;2023-02-22T17:02:59;3.65;;;2.28;;
42134;SDS011;28312;43.460;11.810;2023-02-22T17:07:07;3.88;;;2.17;;
42134;SDS011;28312;43.460;11.810;2023-02-22T17:11:11;4.28;;;2.35;;
42134;SDS011;28312;43.460;11.810;2023-02-22T17:15:18;4.43;;;2.50;;
42134;SDS011;28312;43.460;11.810;2023-02-22T17:19:27;4.65;;;3.05;;
42134;SDS011;28312;43.460;11.810;2023-02-22T17:23:31;3.53;;;2.10;;
42134;SDS011;28312;43.460;11.810;2023-02-22T17:27:35;4.97;;;2.40;;
42134;SDS011;28312;43.460;11.810;2023-02-22T17:31:38;4.85;;;2.90;;
42134;SDS011;28312;43.460;11.810;2023-02-22T17:35:43;3.95;;;2.60;;
42134;SDS011;28312;43.460;11.810;2023-02-22T17:39:48;6.45;;;3.20;;
42134;SDS011;28312;43.460;11.810;2023-02-22T17:43:52;5.07;;;2.88;;
42134;SDS011;28312;43.460;11.810;2023-02-22T17:47:56;3.63;;;2.42;;
42134;SDS011;28312;43.460;11.810;2023-02-22T17:52:01;5.93;;;2.72;;
42134;SDS011;28312;43.460;11.810;2023-02-22T17:56:08;4.28;;;2.15;;
42134;SDS011;28312;43.460;11.810;2023-02-22T18:00:16;5.50;;;3.42;;
42134;SDS011;28312;43.460;11.810;2023-02-22T18:04:26;5.18;;;3.08;;
42134;SDS011;28312;43.460;11.810;2023-02-22T18:08:30;7.72;;;5.57;;
42134;SDS011;28312;43.460;11.810;2023-02-22T18:12:34;4.07;;;2.70;;
42134;SDS011;28312;43.460;11.810;2023-02-22T18:16:39;3.65;;;2.78;;
42134;SDS011;28312;43.460;11.810;2023-02-22T18:20:44;4.30;;;2.60;;
42134;SDS011;28312;43.460;11.810;2023-02-22T18:24:51;5.38;;;2.60;;
42134;SDS011;28312;43.460;11.810;2023-02-22T18:29:00;5.68;;;3.53;;
42134;SDS011;28312;43.460;11.810;2023-02-22T18:33:04;5.43;;;3.42;;
42134;SDS011;28312;43.460;11.810;2023-02-22T18:37:08;7.68;;;4.50;;
42134;SDS011;28312;43.460;11.810;2023-02-22T18:41:15;6.60;;;4.67;;
42134;SDS011;28312;43.460;11.810;2023-02-22T18:45:22;7.75;;;4.72;;
42134;SDS011;28312;43.460;11.810;2023-02-22T18:49:29;8.73;;;4.65;;
42134;SDS011;28312;43.460;11.810;2023-02-22T18:53:33;5.47;;;4.50;;
42134;SDS011;28312;43.460;11.810;2023-02-22T18:57:39;10.10;;;5.57;;
42134;SDS011;28312;43.460;11.810;2023-02-22T19:01:43;8.35;;;6.82;;
42134;SDS011;28312;43.460;11.810;2023-02-22T19:05:51;6.63;;;4.50;;
42134;SDS011;28312;43.460;11.810;2023-02-22T19:09:56;8.40;;;6.28;;
42134;SDS011;28312;43.460;11.810;2023-02-22T19:14:00;9.57;;;5.93;;
42134;SDS011;28312;43.460;11.810;2023-02-22T19:22:11;9.35;;;5.65;;
42134;SDS011;28312;43.460;11.810;2023-02-22T19:26:20;7.75;;;6.10;;
42134;SDS011;28312;43.460;11.810;2023-02-22T19:30:28;10.57;;;6.68;;
42134;SDS011;28312;43.460;11.810;2023-02-22T19:34:34;9.03;;;6.90;;
42134;SDS011;28312;43.460;11.810;2023-02-22T19:38:39;10.60;;;7.00;;
42134;SDS011;28312;43.460;11.810;2023-02-22T19:42:43;10.02;;;7.40;;
42134;SDS011;28312;43.460;11.810;2023-02-22T19:46:47;8.38;;;6.75;;
42134;SDS011;28312;43.460;11.810;2023-02-22T19:50:50;9.50;;;6.13;;
42134;SDS011;28312;43.460;11.810;2023-02-22T19:54:59;9.00;;;6.43;;
42134;SDS011;28312;43.460;11.810;2023-02-22T19:59:04;10.25;;;7.00;;
42134;SDS011;28312;43.460;11.810;2023-02-22T20:03:16;10.50;;;7.38;;
42134;SDS011;28312;43.460;11.810;2023-02-22T20:07:25;12.23;;;8.02;;
42134;SDS011;28312;43.460;11.810;2023-02-22T20:11:28;8.35;;;6.82;;
42134;SDS011;28312;43.460;11.810;2023-02-22T20:15:32;10.57;;;8.20;;
42134;SDS011;28312;43.460;11.810;2023-02-22T20:19:36;9.00;;;5.65;;
42134;SDS011;28312;43.460;11.810;2023-02-22T20:23:44;10.13;;;7.72;;
42134;SDS011;28312;43.460;11.810;2023-02-22T20:27:47;10.82;;;7.68;;
42134;SDS011;28312;43.460;11.810;2023-02-22T20:31:52;10.52;;;9.05;;
42134;SDS011;28312;43.460;11.810;2023-02-22T20:40:06;10.80;;;8.23;;
42134;SDS011;28312;43.460;11.810;2023-02-22T20:44:11;14.60;;;10.48;;
42134;SDS011;28312;43.460;11.810;2023-02-22T20:48:16;11.20;;;8.07;;
42134;SDS011;28312;43.460;11.810;2023-02-22T20:52:22;10.57;;;7.80;;
42134;SDS011;28312;43.460;11.810;2023-02-22T20:56:26;12.32;;;9.13;;
42134;SDS011;28312;43.460;11.810;2023-02-22T21:00:31;12.48;;;8.40;;
42134;SDS011;28312;43.460;11.810;2023-02-22T21:04:37;11.33;;;9.53;;
42134;SDS011;28312;43.460;11.810;2023-02-22T21:08:42;14.10;;;11.15;;
42134;SDS011;28312;43.460;11.810;2023-02-22T21:12:48;13.18;;;10.10;;
42134;SDS011;28312;43.460;11.810;2023-02-22T21:16:54;16.55;;;10.85;;
42134;SDS011;28312;43.460;11.810;2023-02-22T21:21:02;18.98;;;13.07;;
42134;SDS011;28312;43.460;11.810;2023-02-22T21:25:11;13.27;;;10.13;;
42134;SDS011;28312;43.460;11.810;2023-02-22T21:33:22;14.40;;;11.05;;
42134;SDS011;28312;43.460;11.810;2023-02-22T21:37:25;8.85;;;6.85;;
42134;SDS011;28312;43.460;11.810;2023-02-22T21:41:31;7.85;;;5.68;;
42134;SDS011;28312;43.460;11.810;2023-02-22T21:45:36;12.73;;;7.25;;
42134;SDS011;28312;43.460;11.810;2023-02-22T21:49:41;9.68;;;6.38;;
42134;SDS011;28312;43.460;11.810;2023-02-22T21:53:48;8.50;;;7.38;;
42134;SDS011;28312;43.460;11.810;2023-02-22T21:57:53;21.63;;;16.60;;
42134;SDS011;28312;43.460;11.810;2023-02-22T22:01:57;15.70;;;12.27;;
42134;SDS011;28312;43.460;11.810;2023-02-22T22:06:04;10.15;;;8.98;;
42134;SDS011;28312;43.460;11.810;2023-02-22T22:10:11;14.82;;;9.60;;
42134;SDS011;28312;43.460;11.810;2023-02-22T22:14:20;11.05;;;8.05;;
42134;SDS011;28312;43.460;11.810;2023-02-22T22:18:25;9.73;;;7.68;;
42134;SDS011;28312;43.460;11.810;2023-02-22T22:22:31;11.40;;;7.77;;
42134;SDS011;28312;43.460;11.810;2023-02-22T22:26:34;10.75;;;7.75;;
42134;SDS011;28312;43.460;11.810;2023-02-22T22:30:39;11.50;;;7.43;;
42134;SDS011;28312;43.460;11.810;2023-02-22T22:34:42;8.07;;;6.10;;
42134;SDS011;28312;43.460;11.810;2023-02-22T22:38:46;9.15;;;5.38;;
42134;SDS011;28312;43.460;11.810;2023-02-22T22:42:51;8.57;;;6.15;;
42134;SDS011;28312;43.460;11.810;2023-02-22T22:46:54;7.40;;;6.40;;
42134;SDS011;28312;43.460;11.810;2023-02-22T22:51:00;11.48;;;9.23;;
42134;SDS011;28312;43.460;11.810;2023-02-22T22:55:08;14.80;;;9.25;;
42134;SDS011;28312;43.460;11.810;2023-02-22T22:59:13;17.60;;;12.68;;
42134;SDS011;28312;43.460;11.810;2023-02-22T23:03:17;17.17;;;9.70;;
42134;SDS011;28312;43.460;11.810;2023-02-22T23:07:20;8.23;;;6.63;;
42134;SDS011;28312;43.460;11.810;2023-02-22T23:11:25;8.05;;;6.60;;
42134;SDS011;28312;43.460;11.810;2023-02-22T23:15:35;8.68;;;5.70;;
42134;SDS011;28312;43.460;11.810;2023-02-22T23:19:44;9.98;;;6.55;;
42134;SDS011;28312;43.460;11.810;2023-02-22T23:23:48;8.45;;;6.53;;
42134;SDS011;28312;43.460;11.810;2023-02-22T23:27:53;9.15;;;6.35;;
42134;SDS011;28312;43.460;11.810;2023-02-22T23:31:57;7.75;;;5.75;;
42134;SDS011;28312;43.460;11.810;2023-02-22T23:36:00;8.18;;;6.72;;
42134;SDS011;28312;43.460;11.810;2023-02-22T23:40:09;9.00;;;6.78;;
42134;SDS011;28312;43.460;11.810;2023-02-22T23:44:18;9.30;;;7.05;;
42134;SDS011;28312;43.460;11.810;2023-02-22T23:48:23;7.60;;;5.72;;
42134;SDS011;28312;43.460;11.810;2023-02-22T23:52:26;5.53;;;4.20;;
42134;SDS011;28312;43.460;11.810;2023-02-22T23:56:31;8.85;;;7.18;;
